Time;durP1;ratioP1;P1;durP2;ratioP2;P2;SDS_P1;SDS_P2;PMS_P1;PMS_P2;Temp;Humidity;BMP_temperature;BMP_pressure;BME280_temperature;BME280_humidity;BME280_pressure;Samples;Min_cycle;Max_cycle;Signal;HPM_P1;HPM_P2
2023/08/24 00:00:51;;;;;;;14.10;12.87;;;;;;;25.37;100.00;101308.00;2115093;27;20226;-63
2023/08/24 00:01:51;;;;;;;18.07;13.20;;;;;;;25.32;100.00;101308.78;2114842;27;20190;-63
2023/08/24 00:02:52;;;;;;;13.67;12.47;;;;;;;25.26;100.00;101299.50;2114495;28;20272;-62
2023/08/24 00:03:53;;;;;;;13.47;12.27;;;;;;;25.30;100.00;101307.75;2114232;28;20197;-63
2023/08/24 00:04:53;;;;;;;14.40;13.10;;;;;;;25.29;100.00;101304.13;2114192;27;20575;-63
2023/08/24 00:05:53;;;;;;;15.60;14.10;;;;;;;25.27;100.00;101309.56;2116293;27;20293;-63
2023/08/24 00:06:54;;;;;;;15.57;13.77;;;;;;;25.27;100.00;101312.41;2121838;27;20181;-63
2023/08/24 00:07:54;;;;;;;14.53;13.23;;;;;;;25.21;100.00;101307.97;2115010;28;20255;-63
2023/08/24 00:08:55;;;;;;;14.50;13.17;;;;;;;25.10;100.00;101296.66;2123289;27;20197;-63
2023/08/24 00:09:55;;;;;;;14.10;12.70;;;;;;;25.23;100.00;101314.69;2115672;27;20198;-62
2023/08/24 00:10:56;;;;;;;15.10;13.73;;;;;;;25.22;100.00;101309.53;2114696;27;20268;-63
2023/08/24 00:11:56;;;;;;;14.70;13.20;;;;;;;25.17;100.00;101304.66;2114464;28;20246;-63
2023/08/24 00:12:56;;;;;;;14.83;13.40;;;;;;;25.24;100.00;101304.13;2114707;27;20182;-63
2023/08/24 00:13:57;;;;;;;14.30;13.00;;;;;;;25.20;100.00;101303.59;2113855;27;20233;-62
2023/08/24 00:14:57;;;;;;;13.60;12.30;;;;;;;25.25;100.00;101302.81;2115265;27;20205;-63
2023/08/24 00:15:58;;;;;;;14.40;13.20;;;;;;;24.73;100.00;101228.91;2122175;27;20200;-63
2023/08/24 00:16:58;;;;;;;14.33;13.03;;;;;;;25.24;100.00;101301.28;2123229;27;20178;-63
2023/08/24 00:17:59;;;;;;;14.93;13.43;;;;;;;25.24;100.00;101293.53;2115464;27;20640;-62
2023/08/24 00:18:59;;;;;;;13.93;12.60;;;;;;;25.26;100.00;101299.50;2114294;28;20674;-62
2023/08/24 00:20:02;;;;;;;14.53;13.20;;;;;;;25.20;100.00;101287.38;2114670;28;20640;-63
2023/08/24 00:21:03;;;;;;;14.87;13.57;;;;;;;25.27;100.00;101305.94;2114868;27;20190;-63
2023/08/24 00:22:03;;;;;;;16.00;13.83;;;;;;;25.18;100.00;101306.94;2119486;27;20269;-63
2023/08/24 00:23:04;;;;;;;15.63;13.90;;;;;;;25.17;100.00;101313.91;2114310;28;20170;-63
2023/08/24 00:24:04;;;;;;;19.27;14.23;;;;;;;25.07;100.00;101326.06;2114067;28;20261;-63
2023/08/24 00:25:09;;;;;;;16.37;13.97;;;;;;;25.05;100.00;101337.13;2114107;28;20728;-63
2023/08/24 00:26:09;;;;;;;15.90;14.43;;;;;;;24.74;100.00;101269.34;2113970;28;20220;-63
2023/08/24 00:27:10;;;;;;;15.73;13.37;;;;;;;24.99;100.00;101299.50;2114619;28;20182;-62
2023/08/24 00:28:10;;;;;;;15.63;14.07;;;;;;;25.02;100.00;101304.16;2114476;27;20190;-63
2023/08/24 00:29:11;;;;;;;14.83;13.43;;;;;;;24.98;100.00;101290.19;2114506;28;20186;-62
2023/08/24 00:30:11;;;;;;;14.57;13.03;;;;;;;24.81;100.00;101285.81;2114586;28;20219;-63
2023/08/24 00:31:15;;;;;;;16.37;14.67;;;;;;;24.15;100.00;101178.09;2114233;27;20202;-63
2023/08/24 00:32:15;;;;;;;16.13;14.43;;;;;;;25.00;100.00;101312.38;2117110;27;20174;-63
2023/08/24 00:33:15;;;;;;;16.30;14.60;;;;;;;25.00;100.00;101306.69;2121086;27;20184;-62
2023/08/24 00:34:16;;;;;;;20.30;14.80;;;;;;;24.97;100.00;101321.94;2114085;28;20174;-62
2023/08/24 00:35:16;;;;;;;15.17;13.57;;;;;;;24.85;100.00;101309.03;2114690;28;20206;-63
2023/08/24 00:36:18;;;;;;;17.00;14.77;;;;;;;24.85;100.00;101306.19;2113432;28;20194;-63
2023/08/24 00:37:18;;;;;;;16.00;14.40;;;;;;;24.84;100.00;101293.31;2114530;28;20186;-62
2023/08/24 00:38:18;;;;;;;16.60;14.93;;;;;;;24.85;100.00;101304.13;2114253;28;20193;-62
2023/08/24 00:39:19;;;;;;;15.13;13.67;;;;;;;24.86;100.00;101302.06;2118738;27;20242;-63
2023/08/24 00:40:20;;;;;;;15.83;14.30;;;;;;;24.82;100.00;101305.16;2119568;27;20270;-63
2023/08/24 00:41:21;;;;;;;15.80;14.20;;;;;;;24.72;100.00;101317.28;2114330;27;20167;-62
2023/08/24 00:42:22;;;;;;;14.87;13.47;;;;;;;24.76;100.00;101312.88;2114072;27;20711;-63
2023/08/24 00:43:24;;;;;;;15.90;14.10;;;;;;;24.80;100.00;101321.91;2113618;28;20179;-63
2023/08/24 00:44:24;;;;;;;14.97;13.40;;;;;;;24.86;100.00;101308.50;2114629;28;20189;-63
2023/08/24 00:45:25;;;;;;;15.30;13.83;;;;;;;24.87;100.00;101301.53;2114097;27;20190;-63
2023/08/24 00:46:27;;;;;;;17.73;14.17;;;;;;;23.74;100.00;101142.97;2113627;28;20214;-62
2023/08/24 00:47:29;;;;;;;15.87;13.80;;;;;;;24.91;100.00;101306.94;2120129;27;20684;-62
2023/08/24 00:48:31;;;;;;;15.53;14.03;;;;;;;24.92;100.00;101308.53;2118054;27;20560;-63
2023/08/24 00:49:31;;;;;;;15.70;13.87;;;;;;;24.90;100.00;101291.25;2114348;27;20197;-63
2023/08/24 00:50:31;;;;;;;16.00;14.50;;;;;;;24.97;100.00;101296.41;2114322;28;20174;-63
2023/08/24 00:51:32;;;;;;;15.40;14.00;;;;;;;24.97;100.00;101300.00;2114259;27;20175;-63
2023/08/24 00:52:33;;;;;;;14.97;13.67;;;;;;;24.96;100.00;101300.50;2113867;28;20190;-63
2023/08/24 00:53:34;;;;;;;16.47;14.37;;;;;;;24.97;100.00;101304.91;2122890;27;20181;-63
2023/08/24 00:54:36;;;;;;;14.97;13.67;;;;;;;24.97;100.00;101297.16;2115137;27;20254;-63
2023/08/24 00:55:37;;;;;;;15.70;14.30;;;;;;;24.89;100.00;101293.31;2113784;28;20665;-62
2023/08/24 00:56:37;;;;;;;15.97;14.57;;;;;;;24.95;100.00;101287.63;2113736;27;20568;-63
2023/08/24 00:57:40;;;;;;;15.40;14.00;;;;;;;25.01;100.00;101300.53;2114203;28;20212;-62
2023/08/24 00:58:41;;;;;;;15.20;13.80;;;;;;;24.99;100.00;101308.00;2114064;28;20202;-63
2023/08/24 00:59:41;;;;;;;15.50;14.17;;;;;;;24.52;100.00;101235.28;2114347;28;20182;-62
2023/08/24 01:00:43;;;;;;;16.20;14.50;;;;;;;24.85;100.00;101303.34;2114306;28;20178;-63
2023/08/24 01:01:46;;;;;;;15.03;13.77;;;;;;;24.84;100.00;101305.44;2113909;28;20178;-63
2023/08/24 01:02:47;;;;;;;15.23;13.90;;;;;;;24.84;100.00;101301.81;2114610;28;20265;-62
2023/08/24 01:03:47;;;;;;;17.47;13.93;;;;;;;24.83;100.00;101294.59;2113755;28;20197;-63
2023/08/24 01:04:48;;;;;;;16.33;14.83;;;;;;;24.82;100.00;101312.91;2114241;28;20200;-63
2023/08/24 01:05:48;;;;;;;16.77;14.73;;;;;;;24.82;100.00;101290.97;2113584;27;20518;-63
2023/08/24 01:06:49;;;;;;;15.30;13.93;;;;;;;24.76;100.00;101272.41;2116763;27;20189;-63
2023/08/24 01:07:49;;;;;;;20.73;15.03;;;;;;;24.89;100.00;101287.66;2119013;27;20185;-62
2023/08/24 01:08:50;;;;;;;16.97;14.27;;;;;;;24.91;100.00;101281.44;2116670;27;20712;-63
2023/08/24 01:09:51;;;;;;;24.83;14.70;;;;;;;24.90;100.00;101283.53;2121324;27;20257;-63
2023/08/24 01:11:09;;;;;;;23.13;14.40;;;;;;;24.93;100.00;101287.38;2114070;28;20205;-63
2023/08/24 01:12:10;;;;;;;16.03;14.43;;;;;;;24.95;100.00;101287.63;2114123;28;20203;-62
2023/08/24 01:13:17;;;;;;;15.80;14.40;;;;;;;24.66;100.00;101252.06;2114759;28;20300;-62
2023/08/24 01:14:30;;;;;;;16.23;14.53;;;;;;;24.90;100.00;101277.84;2121953;27;20316;-63
2023/08/24 01:15:58;;;;;;;17.17;14.80;;;;;;;24.90;100.00;101288.41;2113902;27;20163;-62
2023/08/24 01:17:01;;;;;;;16.47;14.97;;;;;;;24.73;100.00;101262.13;2113535;27;20248;-62
2023/08/24 01:18:05;;;;;;;15.17;13.40;;;;;;;24.83;100.00;101281.19;2114248;28;20186;-63
2023/08/24 01:19:15;;;;;;;14.57;13.03;;;;;;;24.78;100.00;101279.13;2114101;28;20220;-63
2023/08/24 01:20:18;;;;;;;16.00;14.23;;;;;;;24.76;100.00;101281.72;2114096;28;20546;-62
2023/08/24 01:21:18;;;;;;;15.57;14.10;;;;;;;24.75;100.00;101271.66;2113236;27;20185;-63
2023/08/24 01:22:38;;;;;;;15.87;14.27;;;;;;;24.74;100.00;101270.13;2113231;28;20842;-63
2023/08/24 01:24:04;;;;;;;15.77;14.13;;;;;;;24.71;100.00;101262.63;2113780;27;20182;-63
2023/08/24 01:25:12;;;;;;;15.30;13.80;;;;;;;24.72;100.00;101272.69;2113966;28;20185;-63
2023/08/24 01:26:20;;;;;;;14.70;13.30;;;;;;;24.38;100.00;101217.25;2113524;27;20262;-63
2023/08/24 01:27:21;;;;;;;15.60;14.20;;;;;;;24.69;100.00;101270.09;2113807;28;20228;-63
2023/08/24 01:28:22;;;;;;;15.80;14.17;;;;;;;24.26;100.00;101206.44;2113962;28;20190;-62
2023/08/24 01:29:23;;;;;;;15.77;14.30;;;;;;;23.84;100.00;101138.63;2115848;28;20176;-63
2023/08/24 01:30:24;;;;;;;15.93;14.53;;;;;;;24.58;100.00;101253.06;2122344;27;20187;-62
2023/08/24 01:31:24;;;;;;;16.20;14.70;;;;;;;24.68;100.00;101280.69;2122931;27;20272;-63
2023/08/24 01:32:25;;;;;;;16.30;14.80;;;;;;;24.03;100.00;101190.66;2114285;27;20185;-62
2023/08/24 01:33:25;;;;;;;15.43;13.93;;;;;;;24.60;100.00;101273.97;2114019;27;20273;-62
2023/08/24 01:34:26;;;;;;;16.17;14.43;;;;;;;24.51;100.00;101281.91;2113936;28;20186;-63
2023/08/24 01:35:26;;;;;;;15.23;13.73;;;;;;;24.53;100.00;101280.13;2118743;27;20185;-62
2023/08/24 01:36:27;;;;;;;16.50;14.83;;;;;;;24.41;100.00;101269.28;2118366;28;20182;-62
2023/08/24 01:37:28;;;;;;;16.17;14.63;;;;;;;24.46;100.00;101274.19;2113996;28;20170;-63
2023/08/24 01:38:29;;;;;;;16.13;14.63;;;;;;;24.46;100.00;101277.78;2118944;28;20238;-63
2023/08/24 01:39:42;;;;;;;16.47;14.83;;;;;;;24.44;100.00;101271.06;2114847;27;20550;-63
2023/08/24 01:40:52;;;;;;;16.67;15.10;;;;;;;24.44;100.00;101274.69;2121188;27;20650;-63
2023/08/24 01:41:55;;;;;;;17.63;16.00;;;;;;;24.45;100.00;101275.44;2115092;27;20182;-63
2023/08/24 01:43:03;;;;;;;17.13;15.63;;;;;;;24.24;100.00;101255.09;2121682;27;20174;-63
2023/08/24 01:44:06;;;;;;;18.30;16.37;;;;;;;23.74;100.00;101185.44;2114253;27;20180;-62
2023/08/24 01:45:08;;;;;;;17.93;16.13;;;;;;;23.92;100.00;101216.91;2122919;27;20180;-62
2023/08/24 01:46:11;;;;;;;20.80;16.33;;;;;;;24.29;100.00;101273.34;2113427;27;20241;-63
2023/08/24 01:47:12;;;;;;;17.07;15.47;;;;;;;24.23;100.00;101278.25;2121724;27;20673;-63
2023/08/24 01:48:13;;;;;;;16.70;15.20;;;;;;;24.23;100.00;101273.38;2115577;27;20186;-63
2023/08/24 01:49:14;;;;;;;17.20;15.30;;;;;;;24.29;100.00;101276.97;2113997;28;20592;-62
2023/08/24 01:50:15;;;;;;;17.00;15.30;;;;;;;24.31;100.00;101276.47;2113881;28;20186;-63
2023/08/24 01:51:16;;;;;;;17.23;15.53;;;;;;;24.31;100.00;101282.91;2116701;28;20231;-62
2023/08/24 01:52:17;;;;;;;16.27;14.77;;;;;;;24.15;100.00;101254.56;2119184;28;20710;-63
2023/08/24 01:53:18;;;;;;;16.60;14.90;;;;;;;24.33;100.00;101282.38;2114074;27;20185;-63
2023/08/24 01:54:18;;;;;;;16.83;15.20;;;;;;;24.30;100.00;101272.84;2114303;28;20178;-62
2023/08/24 01:55:19;;;;;;;16.63;15.00;;;;;;;24.36;100.00;101276.47;2116031;28;20178;-63
2023/08/24 01:56:20;;;;;;;15.63;14.23;;;;;;;23.73;100.00;101178.19;2115158;28;20167;-63
2023/08/24 01:57:20;;;;;;;16.67;15.23;;;;;;;24.40;100.00;101273.38;2115667;28;20194;-62
2023/08/24 01:58:21;;;;;;;16.93;15.33;;;;;;;23.97;100.00;101210.50;2115228;27;20265;-63
2023/08/24 01:59:21;;;;;;;16.70;15.10;;;;;;;24.41;100.00;101272.13;2115551;28;20663;-63
2023/08/24 02:00:22;;;;;;;17.00;15.40;;;;;;;24.40;100.00;101267.72;2115492;27;20190;-63
2023/08/24 02:01:22;;;;;;;17.73;16.23;;;;;;;23.76;100.00;101163.84;2117439;27;20261;-62
2023/08/24 02:02:24;;;;;;;17.33;15.90;;;;;;;24.26;100.00;101261.00;2123130;27;20261;-63
2023/08/24 02:03:24;;;;;;;17.70;15.83;;;;;;;24.41;100.00;101270.03;2115729;28;20178;-63
2023/08/24 02:04:24;;;;;;;17.87;15.57;;;;;;;24.40;100.00;101270.53;2123561;27;20224;-63
2023/08/24 02:05:27;;;;;;;17.67;15.93;;;;;;;24.40;100.00;101271.34;2116875;27;20197;-63
2023/08/24 02:06:28;;;;;;;17.53;15.83;;;;;;;24.43;100.00;101263.88;2115628;28;20682;-63
2023/08/24 02:07:29;;;;;;;18.70;16.80;;;;;;;24.44;100.00;101268.25;2114971;27;20627;-62
2023/08/24 02:08:29;;;;;;;18.23;16.37;;;;;;;24.44;100.00;101266.19;2115317;27;20258;-63
2023/08/24 02:09:31;;;;;;;19.50;16.43;;;;;;;24.42;100.00;101262.31;2115445;27;20787;-62
2023/08/24 02:10:31;;;;;;;18.73;16.77;;;;;;;24.43;100.00;101252.53;2115473;28;20178;-63
2023/08/24 02:11:32;;;;;;;18.13;16.27;;;;;;;24.43;100.00;101258.97;2115664;27;20182;-63
2023/08/24 02:12:33;;;;;;;19.37;17.33;;;;;;;24.41;100.00;101255.13;2115895;28;20174;-62
2023/08/24 02:13:33;;;;;;;17.73;16.10;;;;;;;24.44;100.00;101262.56;2114873;28;20504;-63
2023/08/24 02:14:33;;;;;;;18.50;16.67;;;;;;;24.44;100.00;101259.75;2115393;28;20182;-63
2023/08/24 02:15:34;;;;;;;18.90;16.87;;;;;;;24.44;100.00;101265.41;2120787;27;20197;-63
2023/08/24 02:16:36;;;;;;;18.30;16.50;;;;;;;24.45;100.00;101264.13;2119053;27;20274;-62
2023/08/24 02:17:36;;;;;;;16.33;14.63;;;;;;;24.30;100.00;101249.44;2115505;28;20596;-62
2023/08/24 02:18:37;;;;;;;16.03;14.33;;;;;;;24.41;100.00;101252.28;2115116;28;20170;-63
2023/08/24 02:19:37;;;;;;;16.20;14.80;;;;;;;24.40;100.00;101262.84;2115166;27;20178;-62
2023/08/24 02:20:38;;;;;;;16.73;15.03;;;;;;;23.56;100.00;101135.72;2115635;27;20173;-63
2023/08/24 02:21:38;;;;;;;16.93;15.13;;;;;;;24.36;100.00;101256.63;2115758;28;20174;-63
2023/08/24 02:22:38;;;;;;;22.17;16.57;;;;;;;24.35;100.00;101263.59;2115183;28;20194;-63
2023/08/24 02:23:39;;;;;;;22.60;16.00;;;;;;;23.91;100.00;101198.34;2121702;27;20190;-63
2023/08/24 02:24:40;;;;;;;17.77;15.97;;;;;;;24.33;100.00;101262.56;2118351;27;20651;-63
2023/08/24 02:25:43;;;;;;;21.43;15.40;;;;;;;24.27;100.00;101264.63;2114810;28;20263;-63
2023/08/24 02:26:44;;;;;;;19.10;16.07;;;;;;;24.32;100.00;101264.63;2115277;28;20190;-63
2023/08/24 02:27:44;;;;;;;16.50;15.00;;;;;;;24.31;100.00;101265.16;2115491;27;20202;-63
2023/08/24 02:28:45;;;;;;;17.70;15.37;;;;;;;24.24;100.00;101269.25;2115188;27;20639;-63
2023/08/24 02:29:45;;;;;;;18.03;15.43;;;;;;;24.24;100.00;101266.41;2115406;28;20671;-63
2023/08/24 02:30:45;;;;;;;17.03;14.70;;;;;;;24.26;100.00;101268.75;2115921;27;20307;-62
2023/08/24 02:31:48;;;;;;;16.97;15.30;;;;;;;24.27;100.00;101273.91;2115160;28;20183;-63
2023/08/24 02:32:49;;;;;;;17.33;15.43;;;;;;;24.22;100.00;101271.03;2121927;27;20277;-62
2023/08/24 02:33:50;;;;;;;16.10;14.50;;;;;;;24.17;100.00;101268.97;2118052;27;20190;-63
2023/08/24 02:34:51;;;;;;;17.17;15.63;;;;;;;24.08;100.00;101272.03;2115546;28;20262;-62
2023/08/24 02:35:51;;;;;;;17.77;16.17;;;;;;;24.09;100.00;101276.38;2114659;28;20616;-62
2023/08/24 02:36:51;;;;;;;18.10;16.40;;;;;;;24.03;100.00;101270.72;2117322;27;20171;-63
2023/08/24 02:37:54;;;;;;;18.43;16.53;;;;;;;24.05;100.00;101276.66;2122788;27;20174;-63
2023/08/24 02:38:55;;;;;;;19.30;17.40;;;;;;;24.02;100.00;101272.03;2115502;28;20174;-63
2023/08/24 02:39:56;;;;;;;18.73;17.10;;;;;;;24.04;100.00;101277.16;2115935;27;20557;-63
2023/08/24 02:41:06;;;;;;;18.40;16.67;;;;;;;24.04;100.00;101263.00;2116348;27;21030;-63
2023/08/24 02:42:07;;;;;;;17.73;16.13;;;;;;;24.06;100.00;101275.34;2115147;27;20191;-63
2023/08/24 02:43:07;;;;;;;19.03;17.07;;;;;;;23.45;100.00;101183.00;2115454;28;20238;-62
2023/08/24 02:44:08;;;;;;;18.00;16.40;;;;;;;24.02;100.00;101274.06;2114905;28;20273;-63
2023/08/24 02:45:08;;;;;;;18.17;16.50;;;;;;;23.96;100.00;101259.13;2119517;27;20214;-63
2023/08/24 02:46:12;;;;;;;20.50;17.37;;;;;;;24.09;100.00;101274.34;2122910;27;20213;-63
2023/08/24 02:47:12;;;;;;;17.90;16.30;;;;;;;24.11;100.00;101273.84;2123003;27;20180;-63
2023/08/24 02:48:13;;;;;;;18.37;16.27;;;;;;;24.11;100.00;101277.44;2121865;27;20260;-62
2023/08/24 02:49:13;;;;;;;18.20;16.50;;;;;;;24.10;100.00;101283.63;2115291;27;20201;-63
2023/08/24 02:50:13;;;;;;;18.67;16.97;;;;;;;24.10;100.00;101270.22;2123714;27;20165;-62
2023/08/24 02:51:14;;;;;;;18.07;16.17;;;;;;;24.11;100.00;101274.59;2116219;27;20254;-63
2023/08/24 02:52:14;;;;;;;18.17;16.33;;;;;;;24.14;100.00;101279.25;2121685;27;20197;-62
2023/08/24 02:53:15;;;;;;;17.57;15.83;;;;;;;24.18;100.00;101276.97;2118469;27;20190;-63
2023/08/24 02:54:15;;;;;;;18.13;16.50;;;;;;;24.15;100.00;101286.47;2115095;27;20182;-62
2023/08/24 02:55:15;;;;;;;17.77;15.90;;;;;;;24.16;100.00;101285.16;2115122;28;20194;-63
2023/08/24 02:56:16;;;;;;;17.83;16.00;;;;;;;24.10;100.00;101275.13;2116250;27;20253;-62
2023/08/24 02:57:16;;;;;;;17.90;16.00;;;;;;;24.12;100.00;101287.50;2123065;27;20174;-63
2023/08/24 02:58:17;;;;;;;17.77;15.83;;;;;;;24.11;100.00;101285.16;2115574;28;20170;-63
2023/08/24 02:59:18;;;;;;;19.90;16.60;;;;;;;23.97;100.00;101267.13;2123138;27;20264;-62
2023/08/24 03:00:18;;;;;;;19.60;16.90;;;;;;;24.01;100.00;101278.19;2116468;27;20251;-63
2023/08/24 03:01:19;;;;;;;18.23;16.53;;;;;;;23.99;100.00;101278.69;2115095;27;20246;-62
2023/08/24 03:02:19;;;;;;;18.47;16.80;;;;;;;23.91;100.00;101276.84;2114965;27;20278;-62
2023/08/24 03:03:19;;;;;;;19.47;17.40;;;;;;;23.87;100.00;101276.28;2115190;27;20182;-63
2023/08/24 03:04:21;;;;;;;19.10;17.13;;;;;;;23.93;100.00;101288.44;2114695;28;20257;-62
2023/08/24 03:05:21;;;;;;;18.30;16.60;;;;;;;23.93;100.00;101289.22;2114611;28;20557;-63
2023/08/24 03:06:24;;;;;;;18.80;17.00;;;;;;;23.95;100.00;101280.97;2114179;28;20222;-63
2023/08/24 03:07:24;;;;;;;18.90;17.03;;;;;;;23.79;100.00;101255.44;2115529;28;20186;-63
2023/08/24 03:08:25;;;;;;;19.97;17.63;;;;;;;23.80;100.00;101268.28;2115274;28;20178;-63
2023/08/24 03:09:25;;;;;;;19.20;17.23;;;;;;;23.95;100.00;101283.81;2115105;27;20412;-63
2023/08/24 03:10:26;;;;;;;19.93;16.97;;;;;;;23.67;100.00;101231.97;2114789;28;20666;-63
2023/08/24 03:11:26;;;;;;;20.23;17.00;;;;;;;23.98;100.00;101288.47;2114960;27;20190;-62
2023/08/24 03:12:26;;;;;;;18.73;16.73;;;;;;;23.99;100.00;101280.72;2115308;28;20180;-62
2023/08/24 03:13:29;;;;;;;18.80;16.90;;;;;;;23.97;100.00;101281.25;2114657;27;20175;-63
2023/08/24 03:14:29;;;;;;;18.97;17.00;;;;;;;24.02;100.00;101279.72;2114691;28;20619;-63
2023/08/24 03:15:31;;;;;;;19.77;16.80;;;;;;;24.05;100.00;101284.38;2114895;28;20190;-62
2023/08/24 03:16:31;;;;;;;18.17;16.27;;;;;;;24.07;100.00;101279.75;2115130;28;20186;-63
2023/08/24 03:17:32;;;;;;;18.20;16.30;;;;;;;24.07;100.00;101282.59;2115252;28;20179;-63
2023/08/24 03:18:32;;;;;;;19.50;17.50;;;;;;;23.87;100.00;101268.59;2115015;27;20217;-62
2023/08/24 03:19:33;;;;;;;19.47;17.47;;;;;;;23.98;100.00;101276.34;2114970;27;20186;-62
2023/08/24 03:20:33;;;;;;;19.27;17.27;;;;;;;23.99;100.00;101290.00;2114763;28;20186;-62
2023/08/24 03:21:34;;;;;;;18.93;16.93;;;;;;;24.00;100.00;101294.38;2114762;28;20178;-63
2023/08/24 03:22:34;;;;;;;19.13;17.40;;;;;;;24.01;100.00;101295.19;2116380;27;20179;-63
2023/08/24 03:23:35;;;;;;;19.83;17.97;;;;;;;23.99;100.00;101287.19;2122992;27;20185;-62
2023/08/24 03:24:36;;;;;;;20.13;18.23;;;;;;;24.04;100.00;101303.41;2123782;27;20176;-62
2023/08/24 03:25:38;;;;;;;19.03;17.23;;;;;;;24.05;100.00;101293.63;2115005;27;20820;-63
2023/08/24 03:26:38;;;;;;;19.53;17.53;;;;;;;23.69;100.00;101240.72;2114954;28;20190;-63
2023/08/24 03:27:39;;;;;;;18.30;16.53;;;;;;;24.09;100.00;101287.72;2114877;27;20277;-63
2023/08/24 03:28:39;;;;;;;18.83;17.00;;;;;;;24.10;100.00;101294.97;2115082;28;20619;-63
2023/08/24 03:29:40;;;;;;;18.13;16.07;;;;;;;24.13;100.00;101289.03;2114819;27;20190;-62
2023/08/24 03:30:46;;;;;;;18.47;16.13;;;;;;;24.15;100.00;101289.28;2114976;28;20238;-62
2023/08/24 03:31:47;;;;;;;18.17;16.47;;;;;;;24.19;100.00;101287.00;2114658;28;20182;-63
2023/08/24 03:32:47;;;;;;;17.33;15.60;;;;;;;24.24;100.00;101288.28;2114839;27;20259;-62
2023/08/24 03:33:48;;;;;;;18.33;16.50;;;;;;;24.24;100.00;101285.44;2114995;28;20182;-63
2023/08/24 03:34:48;;;;;;;18.30;16.60;;;;;;;24.25;100.00;101292.69;2115026;28;20190;-62
2023/08/24 03:35:49;;;;;;;17.70;15.97;;;;;;;24.27;100.00;101285.22;2114310;27;20200;-63
2023/08/24 03:36:49;;;;;;;22.10;16.83;;;;;;;24.13;100.00;101276.94;2114784;27;20208;-62
2023/08/24 03:37:51;;;;;;;18.57;16.60;;;;;;;23.54;100.00;101177.88;2115675;27;20187;-62
2023/08/24 03:38:51;;;;;;;18.37;16.67;;;;;;;24.28;100.00;101295.25;2122664;27;20216;-63
2023/08/24 03:39:51;;;;;;;18.87;16.90;;;;;;;23.83;100.00;101227.63;2120667;27;20676;-63
2023/08/24 03:40:52;;;;;;;17.83;16.23;;;;;;;23.63;100.00;101199.53;2121689;27;20621;-63
2023/08/24 03:41:52;;;;;;;17.63;15.73;;;;;;;24.27;100.00;101295.78;2114516;27;20185;-63
2023/08/24 03:42:53;;;;;;;18.00;16.23;;;;;;;24.29;100.00;101293.97;2123486;27;20230;-63
2023/08/24 03:43:53;;;;;;;18.47;16.67;;;;;;;24.34;100.00;101296.03;2115368;27;20186;-63
2023/08/24 03:44:54;;;;;;;17.83;16.03;;;;;;;24.35;100.00;101297.59;2114559;28;20197;-63
2023/08/24 03:45:54;;;;;;;18.10;15.47;;;;;;;24.38;100.00;101307.13;2114005;28;20205;-63
2023/08/24 03:46:55;;;;;;;17.50;15.90;;;;;;;24.28;100.00;101288.81;2119101;27;20209;-62
2023/08/24 03:47:55;;;;;;;17.87;15.97;;;;;;;24.02;100.00;101240.88;2119885;27;20194;-62
2023/08/24 03:48:56;;;;;;;17.63;15.93;;;;;;;24.45;100.00;101306.63;2116816;27;20171;-63
2023/08/24 03:49:56;;;;;;;17.63;16.03;;;;;;;24.45;100.00;101310.22;2122353;27;20190;-63
2023/08/24 03:50:57;;;;;;;18.03;16.43;;;;;;;24.41;100.00;101300.44;2115093;28;20181;-63
2023/08/24 03:51:58;;;;;;;17.60;15.80;;;;;;;24.43;100.00;101307.16;2114460;28;20659;-63
2023/08/24 03:52:58;;;;;;;17.17;15.50;;;;;;;24.44;100.00;101314.34;2114640;27;20213;-63
2023/08/24 03:53:59;;;;;;;16.87;15.37;;;;;;;24.42;100.00;101314.06;2114626;28;20652;-63
2023/08/24 03:55:00;;;;;;;17.97;16.30;;;;;;;24.41;100.00;101315.38;2114641;28;20304;-63
2023/08/24 03:56:00;;;;;;;16.80;15.10;;;;;;;24.44;100.00;101316.41;2116447;27;20189;-63
2023/08/24 03:57:01;;;;;;;17.33;15.60;;;;;;;24.42;100.00;101319.00;2120510;27;20181;-63
2023/08/24 03:58:02;;;;;;;17.00;15.43;;;;;;;24.44;100.00;101322.06;2114489;28;20174;-63
2023/08/24 03:59:03;;;;;;;16.70;15.00;;;;;;;24.43;100.00;101324.16;2114723;28;20205;-63
2023/08/24 04:00:11;;;;;;;16.33;14.90;;;;;;;24.43;100.00;101321.31;2115098;28;20170;-63
2023/08/24 04:01:11;;;;;;;16.93;15.23;;;;;;;23.82;100.00;101232.53;2115109;28;20241;-62
2023/08/24 04:02:12;;;;;;;16.63;14.97;;;;;;;23.51;100.00;101186.63;2122219;27;20703;-63
2023/08/24 04:03:13;;;;;;;16.73;15.13;;;;;;;24.35;100.00;101320.25;2116391;27;20201;-63
2023/08/24 04:04:13;;;;;;;17.70;15.80;;;;;;;24.30;100.00;101320.25;2113732;28;20266;-62
2023/08/24 04:05:14;;;;;;;17.83;15.97;;;;;;;24.25;100.00;101312.50;2114551;28;20247;-63
2023/08/24 04:06:14;;;;;;;18.10;16.40;;;;;;;24.39;100.00;101334.94;2113894;28;20233;-63
2023/08/24 04:07:15;;;;;;;17.13;15.63;;;;;;;24.31;100.00;101336.72;2114887;28;20186;-63
2023/08/24 04:08:17;;;;;;;17.57;15.87;;;;;;;24.29;100.00;101333.63;2116740;27;20198;-63
2023/08/24 04:09:18;;;;;;;18.03;16.27;;;;;;;24.25;100.00;101335.94;2121593;27;20188;-62
2023/08/24 04:10:18;;;;;;;13.77;12.57;;;;;;;24.13;100.00;101319.41;2114960;27;20612;-64
2023/08/24 04:11:19;;;;;;;12.10;11.10;;;;;;;24.55;100.00;101336.25;2123133;27;20184;-71
2023/08/24 04:12:38;;;;;;;10.57;9.73;;;;;;;25.07;100.00;101335.31;2123125;27;20173;-66
2023/08/24 04:13:38;;;;;;;10.80;9.90;;;;;;;25.40;100.00;101338.19;2114788;28;20174;-59
2023/08/24 04:14:39;;;;;;;10.60;9.73;;;;;;;25.91;100.00;101336.75;2122138;27;20268;-59
2023/08/24 04:15:39;;;;;;;10.30;9.40;;;;;;;26.19;100.00;101332.53;2116230;27;20185;-60
2023/08/24 04:16:41;;;;;;;10.20;9.30;;;;;;;26.44;100.00;101325.69;2122555;27;20185;-60
2023/08/24 04:17:42;;;;;;;9.73;8.87;;;;;;;26.64;100.00;101324.56;2118963;27;20190;-60
2023/08/24 04:18:42;;;;;;;10.00;9.00;;;;;;;26.79;100.00;101320.06;2117465;27;20276;-60
2023/08/24 04:19:43;;;;;;;13.10;11.80;;;;;;;27.03;100.00;101316.50;2123091;27;20248;-61
2023/08/24 04:20:43;;;;;;;10.67;9.67;;;;;;;27.08;100.00;101312.84;2120384;27;20181;-60
2023/08/24 04:21:43;;;;;;;10.83;9.93;;;;;;;26.64;100.00;101242.88;2121994;27;20257;-60
2023/08/24 04:22:44;;;;;;;10.93;9.83;;;;;;;27.29;100.00;101322.50;2116211;27;20193;-61
2023/08/24 04:23:45;;;;;;;13.17;11.90;;;;;;;27.31;100.00;101320.69;2114481;28;20186;-61
2023/08/24 04:24:45;;;;;;;15.13;11.70;;;;;;;27.39;100.00;101315.94;2114566;28;20215;-61
2023/08/24 04:25:45;;;;;;;13.52;12.20;;;;;;;27.44;100.00;101317.19;2115211;28;20210;-62
2023/08/24 04:26:46;;;;;;;13.18;11.88;;;;;;;27.45;100.00;101316.66;2115226;28;20754;-68
2023/08/24 04:27:46;;;;;;;13.75;12.30;;;;;;;27.42;100.00;101322.63;2115175;28;20200;-63
2023/08/24 04:28:47;;;;;;;12.93;11.73;;;;;;;27.33;100.00;101320.16;2115236;28;20174;-65
2023/08/24 04:29:47;;;;;;;13.95;12.45;;;;;;;27.28;100.00;101326.66;2115175;28;20163;-63
2023/08/24 04:30:55;;;;;;;14.80;12.13;;;;;;;27.12;100.00;101321.88;2115204;28;20261;-65
2023/08/24 04:31:56;;;;;;;12.57;11.40;;;;;;;27.07;100.00;101314.91;2119525;27;20214;-63
2023/08/24 04:32:56;;;;;;;13.43;11.98;;;;;;;27.08;100.00;101316.44;2123453;27;20166;-62
2023/08/24 04:33:57;;;;;;;12.85;11.75;;;;;;;27.01;100.00;101307.72;2123571;27;20250;-61
2023/08/24 04:34:57;;;;;;;13.10;11.82;;;;;;;27.03;100.00;101311.56;2123405;27;20197;-62
2023/08/24 04:35:58;;;;;;;15.70;12.18;;;;;;;26.74;100.00;101283.13;2123528;27;20227;-62
2023/08/24 04:36:58;;;;;;;13.68;12.15;;;;;;;26.86;100.00;101313.78;2123353;27;20183;-63